Aérodrome :
LOGIN :

S'inscrire | Disclaimer

   EN    FR    IT 

 










Légende :    VFR   VFR Marginal   IFR   IFR Intensif   IFR Très Intensif
Visi : 
Plafond : 
>= 8 km
>= 3000ft
5 à 8 km
1000 à 3000 ft
1500m à 5 km
500 à 1000 ft
800 à 1500m
200 à 500 ft
< 800m
< 200 ft
Symboles :   Orages  Brouillard  Fortes neiges  Fortes précipitations  Vent > 20 kt
SIGMETs :   Divers  Orages  Givrage  Turbulence  Onde Orograph.  Cendres Volcan.






- Altitude de l'aérodrome : 598 ft
- Code IATA : BQH


EGKB - Biggin Hill

DERNIER METAR :
  • 211420Z 22013KT 190V250 9999 FEW025 07/02 Q0986

METARs EXPIRÉS :
  • 211350Z 22014KT 190V250 9999 FEW025 07/02 Q0986
  • 211320Z 22016KT 9999 FEW025 08/02 Q0986
  • 211250Z 22016G28KT 200V260 9999 SCT025 07/02 Q0987
  • 211220Z 22015KT 9999 SCT030 07/03 Q0987

TAF TAF EGKB
Valide du 21 à 15h jusqu'au 21 à 23h UTC


211357Z 2115/2123 22016KT 9999 FEW025
BECMG 2115/2118 26005KT



MET'MAP, la Météo Aéronautique d'un coup d'oeil ! - Copyright ORBIFLY Décembre 2007 - Disclaimer

ORBIFLY MET'MAP TEAM :

Programmation & Développement : Alexandra Zaïnal
Sur une idée originale de : Baudouin d'Aumeries
Assistance à la programmation : Marc-Olivier Méhu
Soutien technique & logistique : Manuel Goepfert

Contact : metmap@orbifly.com




SOURCES & CREDITS :

   NOAA